Time;durP1;ratioP1;P1;durP2;ratioP2;P2;SDS_P1;SDS_P2;PMS_P1;PMS_P2;Temp;Humidity;BMP_temperature;BMP_pressure;BME280_temperature;BME280_humidity;BME280_pressure;Samples;Min_cycle;Max_cycle;Signal;HPM_P1;HPM_P2
2022/11/25 00:02:03;;;;;;;4.05;2.30;;;;;;;;;;5073130;28;20355;-54
2022/11/25 00:11:06;;;;;;;3.08;1.80;;;;;;;;;;4991426;28;20120;-56
2022/11/25 00:13:53;;;;;;;5.30;2.20;;;;;;;;;;4991535;28;20516;-56
2022/11/25 00:16:34;;;;;;;3.58;2.05;;;;;;;;;;4991692;28;20042;-57
2022/11/25 00:25:08;;;;;;;5.85;2.78;;;;;;;;;;5010505;28;20057;-57
2022/11/25 00:30:54;;;;;;;8.63;2.72;;;;;;;;;;5007236;28;20069;-57
2022/11/25 00:33:40;;;;;;;2.88;1.60;;;;;;;;;;5087112;28;20067;-56
2022/11/25 00:36:31;;;;;;;3.92;1.83;;;;;;;;;;5092065;28;20027;-57
2022/11/25 00:39:25;;;;;;;2.92;1.50;;;;;;;;;;5073566;28;20040;-57
2022/11/25 00:48:11;;;;;;;4.03;2.05;;;;;;;;;;5091665;28;20039;-56
2022/11/25 00:50:56;;;;;;;4.05;2.13;;;;;;;;;;5073829;28;20040;-57
2022/11/25 00:54:03;;;;;;;3.65;2.17;;;;;;;;;;5090778;28;20032;-55
2022/11/25 00:56:29;;;;;;;3.72;2.08;;;;;;;;;;5090267;28;20032;-57
2022/11/25 01:02:34;;;;;;;2.67;2.47;;;;;;;;;;5078697;28;20036;-57
2022/11/25 01:05:23;;;;;;;3.35;1.80;;;;;;;;;;5091231;28;20086;-57
2022/11/25 01:11:17;;;;;;;3.53;2.30;;;;;;;;;;5049050;28;20038;-57
2022/11/25 01:14:05;;;;;;;4.57;2.95;;;;;;;;;;5049202;28;20080;-57
2022/11/25 01:17:10;;;;;;;8.45;2.78;;;;;;;;;;5087857;28;20410;-57
2022/11/25 01:20:04;;;;;;;2.63;1.75;;;;;;;;;;5072859;28;20098;-55
2022/11/25 01:22:50;;;;;;;8.13;3.63;;;;;;;;;;5073269;28;20047;-57
2022/11/25 01:25:48;;;;;;;8.90;2.65;;;;;;;;;;5070002;28;20041;-55
2022/11/25 01:28:58;;;;;;;3.28;1.73;;;;;;;;;;5071217;28;20037;-55
2022/11/25 01:31:48;;;;;;;4.03;1.92;;;;;;;;;;5071020;28;20039;-55
2022/11/25 01:34:50;;;;;;;4.05;2.08;;;;;;;;;;5070120;28;20056;-55
2022/11/25 01:37:40;;;;;;;4.57;2.13;;;;;;;;;;5070029;28;20021;-57
2022/11/25 01:43:42;;;;;;;4.40;2.63;;;;;;;;;;5058157;28;20092;-57
2022/11/25 01:49:36;;;;;;;4.55;2.22;;;;;;;;;;5069797;28;20045;-56
2022/11/25 01:52:10;;;;;;;4.30;2.33;;;;;;;;;;5070601;28;20063;-56
2022/11/25 01:55:09;;;;;;;5.13;2.67;;;;;;;;;;5070636;28;20035;-57
2022/11/25 01:57:56;;;;;;;7.38;2.70;;;;;;;;;;5070364;28;20040;-56
2022/11/25 02:00:50;;;;;;;4.47;2.47;;;;;;;;;;5070259;28;20028;-55
2022/11/25 02:09:55;;;;;;;3.65;2.85;;;;;;;;;;5024393;28;20124;-55
2022/11/25 02:13:48;;;;;;;5.43;3.42;;;;;;;;;;5048001;28;20571;-56
2022/11/25 02:15:55;;;;;;;;;;;;;;;;;;5054348;28;20441;-56
2022/11/25 02:19:02;;;;;;;3.28;2.72;;;;;;;;;;5069259;28;20355;-56
2022/11/25 02:21:50;;;;;;;6.07;2.65;;;;;;;;;;5069756;28;20024;-57
2022/11/25 02:27:34;;;;;;;5.40;2.70;;;;;;;;;;5090124;28;20036;-55
2022/11/25 02:30:07;;;;;;;5.05;2.65;;;;;;;;;;5090304;28;20050;-57
2022/11/25 02:33:18;;;;;;;4.47;3.40;;;;;;;;;;5089836;28;20028;-56
2022/11/25 02:36:30;;;;;;;8.70;4.05;;;;;;;;;;4972690;28;20138;-57
2022/11/25 02:39:25;;;;;;;4.67;3.83;;;;;;;;;;4944327;28;20097;-57
2022/11/25 02:45:29;;;;;;;;;;;;;;;;;;;;;
2022/11/25 02:47:59;;;;;;;8.40;3.72;;;;;;;;;;5075415;28;20068;-53
2022/11/25 02:51:14;;;;;;;;;;;;;;;;;;;;;
2022/11/25 02:53:44;;;;;;;13.20;3.10;;;;;;;;;;4987619;28;20061;-57
2022/11/25 02:56:19;;;;;;;5.93;3.47;;;;;;;;;;4987580;28;20097;-55
2022/11/25 03:02:10;;;;;;;5.78;3.90;;;;;;;;;;5044430;28;20101;-53
2022/11/25 03:04:58;;;;;;;4.35;3.25;;;;;;;;;;5088623;28;20092;-55
2022/11/25 03:16:53;;;;;;;5.50;2.95;;;;;;;;;;5007103;28;20034;-57
2022/11/25 03:19:37;;;;;;;;;;;;;;;;;;;;;
2022/11/25 03:22:26;;;;;;;3.83;2.27;;;;;;;;;;5077454;28;20059;-57
2022/11/25 03:25:11;;;;;;;5.07;2.40;;;;;;;;;;5080117;28;20053;-56
2022/11/25 03:27:50;;;;;;;4.25;2.60;;;;;;;;;;5068481;28;20021;-57
2022/11/25 03:30:39;;;;;;;5.57;2.70;;;;;;;;;;5068206;28;20025;-55
2022/11/25 03:33:08;;;;;;;3.63;1.88;;;;;;;;;;5055880;28;20029;-54
2022/11/25 03:35:53;;;;;;;3.70;2.33;;;;;;;;;;5068312;28;20022;-57
2022/11/25 03:38:40;;;;;;;3.35;1.83;;;;;;;;;;5068686;28;20039;-57
2022/11/25 03:41:12;;;;;;;3.95;2.63;;;;;;;;;;5027895;28;20033;-57
2022/11/25 03:44:11;;;;;;;5.03;3.58;;;;;;;;;;5068761;28;20079;-55
2022/11/25 03:47:10;;;;;;;3.85;2.38;;;;;;;;;;5062451;28;20040;-57
2022/11/25 03:50:05;;;;;;;5.57;3.57;;;;;;;;;;5064022;28;20127;-55
2022/11/25 03:52:50;;;;;;;4.90;3.50;;;;;;;;;;4985797;28;20044;-55
2022/11/25 03:55:42;;;;;;;5.80;3.17;;;;;;;;;;5068505;28;20029;-57
2022/11/25 04:01:34;;;;;;;5.38;3.85;;;;;;;;;;4987467;28;20131;-52
2022/11/25 04:04:11;;;;;;;5.03;3.97;;;;;;;;;;4987658;28;20062;-55
2022/11/25 04:10:07;;;;;;;5.88;4.03;;;;;;;;;;4987392;28;20061;-57
2022/11/25 04:15:56;;;;;;;8.25;5.38;;;;;;;;;;4987831;28;20046;-56
2022/11/25 04:18:31;;;;;;;6.23;4.53;;;;;;;;;;5057327;28;20124;-55
2022/11/25 04:21:20;;;;;;;;;;;;;;;;;;;;;
2022/11/25 04:27:12;;;;;;;11.83;4.13;;;;;;;;;;5026490;28;20049;-57
2022/11/25 04:29:57;;;;;;;6.30;4.27;;;;;;;;;;5025767;28;20057;-56
2022/11/25 04:36:03;;;;;;;6.37;4.23;;;;;;;;;;5014966;28;20034;-53
2022/11/25 04:38:53;;;;;;;7.93;5.57;;;;;;;;;;4992121;28;20485;-58
2022/11/25 04:41:37;;;;;;;6.70;5.35;;;;;;;;;;5015926;28;20037;-56
2022/11/25 04:51:30;;;;;;;7.80;4.53;;;;;;;;;;5023121;28;20038;-57
2022/11/25 04:53:48;;;;;;;5.17;3.77;;;;;;;;;;5008694;28;20038;-55
2022/11/25 04:59:54;;;;;;;5.97;4.80;;;;;;;;;;5043671;28;20545;-56
2022/11/25 05:05:48;;;;;;;5.60;4.20;;;;;;;;;;5033562;28;20033;-55
2022/11/25 05:08:20;;;;;;;;;;;;;;;;;;5048951;28;20072;-56
2022/11/25 05:13:51;;;;;;;6.00;4.17;;;;;;;;;;5029042;28;20807;-56
2022/11/25 05:16:50;;;;;;;6.10;4.10;;;;;;;;;;5048709;28;20033;-56
2022/11/25 05:19:51;;;;;;;11.53;5.53;;;;;;;;;;5047592;28;20030;-55
2022/11/25 05:22:20;;;;;;;8.00;5.17;;;;;;;;;;5048635;28;20577;-54
2022/11/25 05:28:31;;;;;;;7.13;3.90;;;;;;;;;;5000386;28;20041;-57
2022/11/25 05:31:27;;;;;;;4.97;4.57;;;;;;;;;;5074656;28;20033;-54
2022/11/25 05:34:17;;;;;;;4.93;3.60;;;;;;;;;;5063424;28;20274;-55
2022/11/25 05:36:56;;;;;;;6.00;4.33;;;;;;;;;;5057829;28;20033;-55
2022/11/25 05:39:42;;;;;;;5.13;3.50;;;;;;;;;;5090718;28;20032;-55
2022/11/25 05:42:14;;;;;;;4.70;3.55;;;;;;;;;;5070985;28;20037;-56
2022/11/25 05:44:49;;;;;;;5.40;4.27;;;;;;;;;;5072356;28;20064;-55
2022/11/25 05:50:25;;;;;;;4.07;3.67;;;;;;;;;;5089605;28;20054;-56
2022/11/25 05:53:17;;;;;;;4.35;3.92;;;;;;;;;;5090232;28;20132;-54
2022/11/25 05:56:08;;;;;;;12.77;4.77;;;;;;;;;;5076734;28;20032;-56
2022/11/25 05:58:47;;;;;;;4.10;3.70;;;;;;;;;;5057751;28;20035;-55
2022/11/25 06:04:50;;;;;;;14.95;4.63;;;;;;;;;;5033404;28;20564;-54
2022/11/25 06:07:17;;;;;;;5.17;2.93;;;;;;;;;;5075692;28;20103;-53
2022/11/25 06:10:05;;;;;;;7.13;4.60;;;;;;;;;;5076685;28;20024;-56
2022/11/25 06:12:46;;;;;;;7.37;4.10;;;;;;;;;;5075824;28;20078;-55
2022/11/25 06:15:40;;;;;;;;;;;;;;;;;;;;;
2022/11/25 06:18:34;;;;;;;6.20;4.47;;;;;;;;;;5076352;28;20116;-56
2022/11/25 06:24:43;;;;;;;4.43;3.53;;;;;;;;;;5068949;28;20035;-55
2022/11/25 06:27:37;;;;;;;3.57;2.70;;;;;;;;;;5055618;28;20025;-56
2022/11/25 06:36:23;;;;;;;;;;;;;;;;;;5038321;28;20032;-55
2022/11/25 06:38:50;;;;;;;4.90;4.43;;;;;;;;;;5056427;28;19957;-55
2022/11/25 06:44:32;;;;;;;5.70;3.50;;;;;;;;;;5043659;28;20033;-56
2022/11/25 06:47:40;;;;;;;;;;;;;;;;;;;;;
2022/11/25 06:50:10;;;;;;;5.00;3.70;;;;;;;;;;5050653;28;20098;-55
2022/11/25 06:52:51;;;;;;;4.93;3.73;;;;;;;;;;5054295;28;20044;-55
2022/11/25 06:55:36;;;;;;;5.77;4.43;;;;;;;;;;5053924;28;20023;-56
2022/11/25 06:58:30;;;;;;;;;;;;;;;;;;;;;
2022/11/25 07:01:23;;;;;;;6.10;3.67;;;;;;;;;;5033895;28;20509;-57
2022/11/25 07:04:12;;;;;;;4.50;3.07;;;;;;;;;;5054036;28;20028;-53
2022/11/25 07:06:51;;;;;;;4.27;3.13;;;;;;;;;;5054603;28;20347;-56
2022/11/25 07:15:26;;;;;;;6.33;3.83;;;;;;;;;;5036502;28;20033;-57
2022/11/25 07:18:11;;;;;;;5.20;4.03;;;;;;;;;;5054922;28;20474;-57
2022/11/25 07:21:06;;;;;;;5.27;3.20;;;;;;;;;;5025556;28;20087;-55
2022/11/25 07:26:56;;;;;;;4.43;3.07;;;;;;;;;;5050519;28;20044;-56
2022/11/25 07:30:00;;;;;;;5.23;2.23;;;;;;;;;;5073955;28;20040;-56
2022/11/25 07:35:38;;;;;;;4.50;3.13;;;;;;;;;;4992059;28;20057;-56
2022/11/25 07:38:13;;;;;;;8.93;5.00;;;;;;;;;;5070802;28;20033;-57
2022/11/25 07:43:56;;;;;;;4.45;3.60;;;;;;;;;;4992287;28;20034;-55
2022/11/25 07:46:47;;;;;;;9.32;4.25;;;;;;;;;;4977202;28;20531;-56
2022/11/25 07:49:28;;;;;;;9.45;4.93;;;;;;;;;;5053922;28;20045;-57
2022/11/25 07:52:18;;;;;;;4.45;3.28;;;;;;;;;;5071672;28;20045;-57
2022/11/25 07:54:54;;;;;;;;;;;;;;;;;;5056588;28;20478;-56
2022/11/25 07:57:48;;;;;;;4.18;3.15;;;;;;;;;;5072657;28;20081;-55
2022/11/25 08:00:14;;;;;;;7.25;3.63;;;;;;;;;;5073704;28;20055;-57
2022/11/25 08:02:44;;;;;;;4.43;3.45;;;;;;;;;;5073758;28;20070;-56
2022/11/25 08:08:06;;;;;;;6.55;4.53;;;;;;;;;;5061533;28;20048;-56
2022/11/25 08:10:39;;;;;;;7.35;3.80;;;;;;;;;;5078502;28;20032;-57
2022/11/25 08:13:32;;;;;;;8.05;3.90;;;;;;;;;;5078563;28;20108;-57
2022/11/25 08:16:02;;;;;;;4.47;3.53;;;;;;;;;;5018692;28;20188;-56
2022/11/25 08:22:03;;;;;;;;;;;;;;;;;;;;;
2022/11/25 08:24:38;;;;;;;9.52;3.53;;;;;;;;;;5035658;28;20583;-55
2022/11/25 08:27:08;;;;;;;3.47;2.55;;;;;;;;;;5011971;28;20483;-57
2022/11/25 08:29:57;;;;;;;6.70;2.90;;;;;;;;;;5035341;28;20057;-54
2022/11/25 08:33:03;;;;;;;8.35;3.95;;;;;;;;;;5018875;28;20092;-57
2022/11/25 08:36:01;;;;;;;;;;;;;;;;;;;;;
2022/11/25 08:38:39;;;;;;;3.70;2.63;;;;;;;;;;5034153;28;20040;-57
2022/11/25 08:44:36;;;;;;;9.43;4.75;;;;;;;;;;4991305;28;20029;-57
2022/11/25 08:47:09;;;;;;;5.35;4.32;;;;;;;;;;5063272;28;20033;-58
2022/11/25 08:49:44;;;;;;;7.10;4.85;;;;;;;;;;5059675;28;20106;-57
2022/11/25 08:52:35;;;;;;;4.63;3.28;;;;;;;;;;5077258;28;20031;-57
2022/11/25 09:01:37;;;;;;;5.93;3.75;;;;;;;;;;5078517;28;20043;-58
2022/11/25 09:04:25;;;;;;;8.07;3.10;;;;;;;;;;5064564;28;20535;-57
2022/11/25 09:07:29;;;;;;;4.38;3.17;;;;;;;;;;5059930;28;20033;-56
2022/11/25 09:16:53;;;;;;;4.78;3.35;;;;;;;;;;5003665;28;20034;-57
2022/11/25 09:19:37;;;;;;;4.13;3.15;;;;;;;;;;5062923;28;20039;-55
2022/11/25 09:22:27;;;;;;;5.55;3.75;;;;;;;;;;5076149;28;20409;-57
2022/11/25 09:25:16;;;;;;;5.85;4.07;;;;;;;;;;5076140;28;20032;-59
2022/11/25 09:31:24;;;;;;;3.25;2.65;;;;;;;;;;4974621;28;20242;-58
2022/11/25 09:34:11;;;;;;;6.03;3.35;;;;;;;;;;5000715;28;20122;-57
2022/11/25 09:39:59;;;;;;;4.95;3.42;;;;;;;;;;5033669;28;20144;-57
2022/11/25 09:51:51;;;;;;;3.60;2.70;;;;;;;;;;5069925;28;20542;-56
2022/11/25 09:57:44;;;;;;;7.43;3.88;;;;;;;;;;4974037;28;20035;-57
2022/11/25 10:00:42;;;;;;;4.63;3.25;;;;;;;;;;4975126;28;20031;-56
2022/11/25 10:03:28;;;;;;;6.97;2.97;;;;;;;;;;5059802;28;20032;-57
2022/11/25 10:09:35;;;;;;;5.97;2.80;;;;;;;;;;5067845;28;20033;-53
2022/11/25 10:12:20;;;;;;;4.72;2.85;;;;;;;;;;5022317;28;20036;-57
2022/11/25 10:15:27;;;;;;;;;;;;;;;;;;;;;
2022/11/25 10:18:00;;;;;;;4.80;2.15;;;;;;;;;;5049480;28;20043;-57
2022/11/25 10:21:05;;;;;;;3.67;2.55;;;;;;;;;;5075232;28;20024;-54
2022/11/25 10:23:58;;;;;;;5.90;3.08;;;;;;;;;;5074909;28;20017;-57
2022/11/25 10:33:30;;;;;;;;;;;;;;;;;;5055420;28;20048;-57
2022/11/25 10:36:18;;;;;;;7.85;4.70;;;;;;;;;;5055141;28;19908;-57
2022/11/25 10:39:05;;;;;;;6.50;3.78;;;;;;;;;;5056463;28;20040;-56
2022/11/25 10:42:24;;;;;;;4.03;2.95;;;;;;;;;;5037398;28;20391;-56
2022/11/25 10:45:08;;;;;;;4.95;3.53;;;;;;;;;;4955125;29;20028;-56
2022/11/25 10:47:53;;;;;;;5.10;3.92;;;;;;;;;;4945942;29;20038;-57
2022/11/25 10:50:51;;;;;;;5.30;3.47;;;;;;;;;;4954806;28;20043;-56
2022/11/25 10:53:49;;;;;;;6.20;3.50;;;;;;;;;;4954792;29;20166;-57
2022/11/25 10:56:39;;;;;;;5.45;3.78;;;;;;;;;;5004495;28;20036;-58
2022/11/25 10:59:30;;;;;;;4.88;2.22;;;;;;;;;;5042261;28;20368;-58
2022/11/25 11:02:25;;;;;;;;;;;;;;;;;;;;;
2022/11/25 11:08:42;;;;;;;5.90;2.85;;;;;;;;;;5024909;28;20025;-56
2022/11/25 11:17:40;;;;;;;3.80;1.52;;;;;;;;;;5040690;28;20082;-57
2022/11/25 11:20:21;;;;;;;8.07;2.05;;;;;;;;;;5040955;28;20523;-57
2022/11/25 11:23:28;;;;;;;4.03;2.38;;;;;;;;;;5038189;28;20110;-57
2022/11/25 11:32:36;;;;;;;3.05;1.67;;;;;;;;;;5065947;28;20031;-57
2022/11/25 11:35:25;;;;;;;9.40;2.10;;;;;;;;;;5065430;28;20410;-57
2022/11/25 11:41:33;;;;;;;2.50;1.40;;;;;;;;;;5064413;28;20040;-57
2022/11/25 11:44:26;;;;;;;3.47;1.42;;;;;;;;;;5013000;28;20033;-57
2022/11/25 11:47:21;;;;;;;3.15;1.65;;;;;;;;;;5042715;28;20061;-56
2022/11/25 11:50:05;;;;;;;3.15;1.50;;;;;;;;;;5064753;28;20033;-56
2022/11/25 11:52:52;;;;;;;3.65;1.55;;;;;;;;;;5058381;28;20025;-59
2022/11/25 11:55:47;;;;;;;3.08;1.75;;;;;;;;;;5053503;28;20356;-55
2022/11/25 11:58:59;;;;;;;3.42;1.58;;;;;;;;;;5037384;28;20025;-57
2022/11/25 12:01:49;;;;;;;4.47;2.10;;;;;;;;;;4953673;29;20378;-56
2022/11/25 12:07:53;;;;;;;5.00;2.40;;;;;;;;;;4992203;28;20073;-56
2022/11/25 12:10:38;;;;;;;2.67;2.10;;;;;;;;;;5008097;28;20033;-58
2022/11/25 12:13:31;;;;;;;8.48;2.15;;;;;;;;;;5035608;28;20467;-58
2022/11/25 12:16:26;;;;;;;5.20;2.80;;;;;;;;;;5046558;28;20044;-58
2022/11/25 12:19:10;;;;;;;5.75;3.78;;;;;;;;;;5054076;28;20108;-58
2022/11/25 12:22:13;;;;;;;4.38;2.10;;;;;;;;;;5052992;28;20034;-57
2022/11/25 12:24:49;;;;;;;5.20;2.80;;;;;;;;;;5035580;28;20459;-57
2022/11/25 12:27:42;;;;;;;3.72;2.60;;;;;;;;;;5049409;28;20474;-58
2022/11/25 12:30:33;;;;;;;5.18;2.20;;;;;;;;;;4971630;28;20041;-56
2022/11/25 12:33:28;;;;;;;4.45;2.42;;;;;;;;;;5063786;28;20109;-57
2022/11/25 12:36:04;;;;;;;4.82;2.35;;;;;;;;;;5082994;28;20024;-58
2022/11/25 12:42:27;;;;;;;;;;;;;;;;;;;;;
2022/11/25 12:47:57;;;;;;;6.22;1.40;;;;;;;;;;5003442;28;20026;-57
2022/11/25 12:50:42;;;;;;;7.22;1.83;;;;;;;;;;5067861;28;20075;-59
2022/11/25 12:56:48;;;;;;;4.25;2.13;;;;;;;;;;5090017;28;20119;-57
2022/11/25 12:59:23;;;;;;;2.63;1.48;;;;;;;;;;5090113;28;20059;-57
2022/11/25 13:02:01;;;;;;;4.82;1.30;;;;;;;;;;5088540;28;20366;-57
2022/11/25 13:08:23;;;;;;;3.53;1.45;;;;;;;;;;5036004;28;20064;-57
2022/11/25 13:17:44;;;;;;;3.13;1.90;;;;;;;;;;5003144;28;20034;-57
2022/11/25 13:20:36;;;;;;;3.90;1.90;;;;;;;;;;5046262;28;20042;-57
2022/11/25 13:29:45;;;;;;;6.28;3.47;;;;;;;;;;4958712;29;20098;-56
2022/11/25 13:38:53;;;;;;;4.50;2.72;;;;;;;;;;4961822;29;20048;-56
2022/11/25 13:41:24;;;;;;;5.28;2.45;;;;;;;;;;4987075;28;20082;-57
2022/11/25 13:43:53;;;;;;;;;;;;;;;;;;5005760;28;20033;-58
2022/11/25 13:46:50;;;;;;;;;;;;;;;;;;;;;
2022/11/25 13:49:48;;;;;;;4.07;2.88;;;;;;;;;;5046462;28;20093;-58
2022/11/25 13:52:23;;;;;;;6.63;2.58;;;;;;;;;;4980154;28;20061;-58
2022/11/25 13:54:59;;;;;;;6.18;2.63;;;;;;;;;;4995322;28;20395;-58
2022/11/25 14:01:12;;;;;;;3.75;2.00;;;;;;;;;;4988332;28;20052;-57
2022/11/25 14:07:34;;;;;;;2.85;2.42;;;;;;;;;;4949285;29;20034;-59
2022/11/25 14:10:24;;;;;;;3.75;2.47;;;;;;;;;;4930543;29;20359;-59
2022/11/25 14:13:19;;;;;;;6.82;2.92;;;;;;;;;;4970847;28;20043;-59
2022/11/25 14:19:09;;;;;;;3.70;1.63;;;;;;;;;;4988563;28;20033;-58
2022/11/25 14:24:57;;;;;;;;;;;;;;;;;;;;;
2022/11/25 14:27:47;;;;;;;4.88;1.40;;;;;;;;;;5036284;28;20131;-56
2022/11/25 14:30:30;;;;;;;6.07;2.03;;;;;;;;;;5083653;28;20067;-58
2022/11/25 14:36:41;;;;;;;4.47;1.10;;;;;;;;;;5064316;28;20444;-58
2022/11/25 14:39:23;;;;;;;6.90;1.85;;;;;;;;;;5084374;28;20050;-57
2022/11/25 14:42:26;;;;;;;1.60;0.90;;;;;;;;;;5084043;28;20458;-58
2022/11/25 14:45:24;;;;;;;;;;;;;;;;;;;;;
2022/11/25 14:51:08;;;;;;;4.93;1.42;;;;;;;;;;5071002;28;20565;-58
2022/11/25 15:00:07;;;;;;;3.53;0.80;;;;;;;;;;5015568;28;20508;-58
2022/11/25 15:03:02;;;;;;;7.85;1.30;;;;;;;;;;5077930;28;20036;-58
2022/11/25 15:06:03;;;;;;;3.38;1.63;;;;;;;;;;5088329;28;20028;-58
2022/11/25 15:11:36;;;;;;;5.18;0.73;;;;;;;;;;5082012;28;20028;-59
2022/11/25 15:14:24;;;;;;;5.90;1.77;;;;;;;;;;5052769;28;20055;-58
2022/11/25 15:17:09;;;;;;;2.78;1.00;;;;;;;;;;5068545;28;20100;-56
2022/11/25 15:19:51;;;;;;;7.03;1.52;;;;;;;;;;5052670;28;20032;-58
2022/11/25 15:22:30;;;;;;;7.32;2.15;;;;;;;;;;5065227;28;20066;-57
2022/11/25 15:28:33;;;;;;;0.85;0.60;;;;;;;;;;5065920;28;20052;-58
2022/11/25 15:34:49;;;;;;;3.20;1.50;;;;;;;;;;5033508;28;20426;-58
2022/11/25 15:37:34;;;;;;;3.75;1.33;;;;;;;;;;5065703;28;20075;-58
2022/11/25 15:40:31;;;;;;;5.30;1.42;;;;;;;;;;5034912;28;20487;-58
2022/11/25 15:43:33;;;;;;;;;;;;;;;;;;;;;
2022/11/25 15:46:15;;;;;;;4.22;1.65;;;;;;;;;;5062168;28;20479;-59
2022/11/25 15:48:46;;;;;;;4.63;1.75;;;;;;;;;;5065596;28;20108;-58
2022/11/25 15:51:12;;;;;;;;;;;;;;;;;;5066158;28;20498;-56
2022/11/25 15:53:56;;;;;;;2.35;1.20;;;;;;;;;;5049127;28;19905;-55
2022/11/25 15:56:49;;;;;;;2.40;0.93;;;;;;;;;;5065977;28;20032;-59
2022/11/25 15:59:57;;;;;;;9.88;1.92;;;;;;;;;;5066559;28;20033;-58
2022/11/25 16:05:52;;;;;;;2.38;1.40;;;;;;;;;;4964980;29;20028;-57
2022/11/25 16:20:46;;;;;;;2.53;1.25;;;;;;;;;;4963342;29;20050;-59
2022/11/25 16:23:38;;;;;;;3.08;1.38;;;;;;;;;;4966492;29;20027;-59
2022/11/25 16:29:22;;;;;;;7.80;2.22;;;;;;;;;;5075811;28;20064;-58
2022/11/25 16:35:23;;;;;;;3.83;1.85;;;;;;;;;;5089523;28;20037;-58
2022/11/25 16:41:28;;;;;;;9.25;1.90;;;;;;;;;;4989662;28;20039;-60
2022/11/25 16:44:10;;;;;;;3.70;1.90;;;;;;;;;;4972962;28;20089;-58
2022/11/25 16:52:26;;;;;;;6.82;1.67;;;;;;;;;;5004314;28;20030;-56
2022/11/25 16:58:06;;;;;;;5.93;2.35;;;;;;;;;;5007589;28;20527;-53
2022/11/25 17:00:59;;;;;;;2.70;1.63;;;;;;;;;;4999677;28;20066;-54
2022/11/25 17:03:40;;;;;;;4.00;1.77;;;;;;;;;;5004412;28;20062;-53
2022/11/25 17:06:19;;;;;;;2.92;1.52;;;;;;;;;;4990721;28;20472;-56
2022/11/25 17:09:31;;;;;;;5.00;1.95;;;;;;;;;;5005259;28;20029;-53
2022/11/25 17:12:06;;;;;;;4.85;1.90;;;;;;;;;;4958279;28;20041;-56
2022/11/25 17:14:38;;;;;;;4.85;2.00;;;;;;;;;;5034337;28;20043;-57
2022/11/25 17:17:29;;;;;;;9.82;1.95;;;;;;;;;;5076689;28;20033;-57
2022/11/25 17:20:24;;;;;;;7.25;2.00;;;;;;;;;;5076898;28;20029;-57
2022/11/25 17:22:58;;;;;;;5.82;2.90;;;;;;;;;;5059783;28;20040;-55
2022/11/25 17:25:42;;;;;;;5.53;2.83;;;;;;;;;;5076070;28;20351;-55
2022/11/25 17:28:19;;;;;;;5.50;2.40;;;;;;;;;;5069114;28;20084;-55
2022/11/25 17:34:11;;;;;;;5.22;2.63;;;;;;;;;;5018096;28;20035;-55
2022/11/25 17:36:59;;;;;;;4.10;2.10;;;;;;;;;;5056526;28;20056;-56
2022/11/25 17:39:55;;;;;;;6.05;2.10;;;;;;;;;;5054923;28;20359;-55
2022/11/25 17:42:43;;;;;;;7.72;3.22;;;;;;;;;;5055767;28;20044;-54
2022/11/25 17:48:41;;;;;;;4.25;2.20;;;;;;;;;;5055877;28;20037;-55
2022/11/25 17:57:12;;;;;;;4.18;2.88;;;;;;;;;;5055754;28;20082;-52
2022/11/25 18:05:56;;;;;;;3.47;2.17;;;;;;;;;;5055755;28;20056;-55
2022/11/25 18:11:35;;;;;;;7.80;2.65;;;;;;;;;;5018134;28;20030;-55
2022/11/25 18:14:18;;;;;;;6.95;2.70;;;;;;;;;;5024207;28;20363;-54
2022/11/25 18:16:54;;;;;;;4.60;2.35;;;;;;;;;;4994299;28;20031;-56
2022/11/25 18:19:21;;;;;;;4.57;2.15;;;;;;;;;;4993400;28;20572;-53
2022/11/25 18:21:59;;;;;;;4.55;2.40;;;;;;;;;;4993409;28;20477;-56
2022/11/25 18:27:59;;;;;;;;;;;;;;;;;;;;;
2022/11/25 18:31:04;;;;;;;6.32;3.20;;;;;;;;;;5013148;28;20026;-52
2022/11/25 18:33:52;;;;;;;10.38;3.17;;;;;;;;;;5013586;28;20072;-54
2022/11/25 18:36:26;;;;;;;5.75;2.53;;;;;;;;;;5013888;28;20045;-57
2022/11/25 18:42:07;;;;;;;5.60;2.55;;;;;;;;;;5012938;28;20064;-57
2022/11/25 18:47:51;;;;;;;5.95;2.53;;;;;;;;;;5019476;28;20535;-56
2022/11/25 18:50:42;;;;;;;4.65;2.30;;;;;;;;;;5057806;28;20466;-54
2022/11/25 18:53:35;;;;;;;4.28;2.72;;;;;;;;;;5074246;28;20383;-55
2022/11/25 18:56:31;;;;;;;8.30;3.25;;;;;;;;;;5075925;28;20025;-57
2022/11/25 19:02:01;;;;;;;6.43;2.85;;;;;;;;;;5033252;28;20392;-56
2022/11/25 19:04:52;;;;;;;13.00;3.63;;;;;;;;;;5033523;28;20108;-54
2022/11/25 19:13:39;;;;;;;6.00;1.63;;;;;;;;;;5002403;28;20034;-53
2022/11/25 19:16:35;;;;;;;9.57;2.60;;;;;;;;;;5016815;28;20041;-53
2022/11/25 19:19:29;;;;;;;3.75;2.08;;;;;;;;;;5032606;28;20475;-53
2022/11/25 19:22:17;;;;;;;7.95;2.28;;;;;;;;;;5032946;28;20040;-54
2022/11/25 19:25:02;;;;;;;6.57;2.70;;;;;;;;;;5032732;28;20028;-55
2022/11/25 19:33:55;;;;;;;3.90;1.75;;;;;;;;;;5049974;28;20040;-53
2022/11/25 19:36:52;;;;;;;4.93;2.38;;;;;;;;;;5035055;28;20064;-53
2022/11/25 19:39:21;;;;;;;8.00;3.05;;;;;;;;;;5032483;28;20044;-57
2022/11/25 19:41:56;;;;;;;9.77;2.83;;;;;;;;;;5051884;28;20084;-56
2022/11/25 19:44:27;;;;;;;4.90;2.92;;;;;;;;;;5051626;28;20029;-56
2022/11/25 19:47:19;;;;;;;;;;;;;;;;;;;;;
2022/11/25 19:50:06;;;;;;;6.25;1.73;;;;;;;;;;5050985;28;20413;-51
2022/11/25 19:52:54;;;;;;;;;;;;;;;;;;;;;
2022/11/25 19:55:44;;;;;;;3.85;2.10;;;;;;;;;;5053602;28;20033;-53
2022/11/25 19:58:28;;;;;;;;;;;;;;;;;;;;;
2022/11/25 20:01:31;;;;;;;10.27;3.55;;;;;;;;;;5038998;28;20031;-54
2022/11/25 20:04:10;;;;;;;4.10;2.08;;;;;;;;;;5058785;28;20028;-55
2022/11/25 20:07:32;;;;;;;7.47;2.60;;;;;;;;;;5039991;28;20406;-56
2022/11/25 20:10:31;;;;;;;7.03;2.58;;;;;;;;;;4957355;29;20501;-52
2022/11/25 20:16:35;;;;;;;5.25;2.67;;;;;;;;;;4996415;28;20065;-57
2022/11/25 20:19:05;;;;;;;6.47;2.90;;;;;;;;;;4979265;28;20492;-54
2022/11/25 20:21:50;;;;;;;;;;;;;;;;;;;;;
2022/11/25 20:24:41;;;;;;;7.22;3.05;;;;;;;;;;5047313;28;20033;-55
2022/11/25 20:27:29;;;;;;;5.90;2.92;;;;;;;;;;5024143;28;20498;-57
2022/11/25 20:29:59;;;;;;;7.47;3.33;;;;;;;;;;5076331;28;20053;-57
2022/11/25 20:32:44;;;;;;;5.95;3.28;;;;;;;;;;5059204;28;20036;-57
2022/11/25 20:38:25;;;;;;;5.05;2.47;;;;;;;;;;5077471;28;20119;-58
2022/11/25 20:47:16;;;;;;;6.20;3.33;;;;;;;;;;5078444;28;20067;-57
2022/11/25 20:49:46;;;;;;;5.97;3.47;;;;;;;;;;5054567;28;20454;-55
2022/11/25 20:52:34;;;;;;;;;;;;;;;;;;;;;
2022/11/25 20:55:40;;;;;;;7.00;2.53;;;;;;;;;;5076024;28;20350;-54
2022/11/25 20:58:45;;;;;;;7.30;3.53;;;;;;;;;;5077816;28;20028;-57
2022/11/25 21:01:54;;;;;;;5.30;2.90;;;;;;;;;;5065360;28;20082;-56
2022/11/25 21:07:16;;;;;;;4.78;2.47;;;;;;;;;;5077670;28;20455;-57
2022/11/25 21:09:53;;;;;;;;;;;;;;;;;;;;;
2022/11/25 21:12:24;;;;;;;5.82;3.03;;;;;;;;;;5047897;28;20039;-54
2022/11/25 21:15:00;;;;;;;5.80;3.30;;;;;;;;;;5058525;28;20536;-55
2022/11/25 21:17:32;;;;;;;4.03;2.30;;;;;;;;;;5077222;28;20051;-56
2022/11/25 21:20:43;;;;;;;6.10;3.33;;;;;;;;;;5066310;28;20481;-50
2022/11/25 21:23:39;;;;;;;4.60;2.28;;;;;;;;;;5076906;28;20382;-54
2022/11/25 21:26:26;;;;;;;10.75;2.60;;;;;;;;;;5077573;28;20021;-56
2022/11/25 21:29:16;;;;;;;5.97;2.38;;;;;;;;;;5072276;28;20114;-53
2022/11/25 21:31:58;;;;;;;3.78;3.10;;;;;;;;;;5035930;28;20114;-55
2022/11/25 21:37:55;;;;;;;10.00;3.70;;;;;;;;;;4984857;28;20031;-56
2022/11/25 21:40:59;;;;;;;9.38;2.35;;;;;;;;;;5037715;28;20029;-57
2022/11/25 21:46:43;;;;;;;3.30;2.00;;;;;;;;;;5033388;28;20453;-56
2022/11/25 21:49:39;;;;;;;10.00;3.90;;;;;;;;;;5056607;28;20029;-55
2022/11/25 21:55:25;;;;;;;4.30;2.75;;;;;;;;;;5055617;28;20036;-54
2022/11/25 21:58:01;;;;;;;6.05;2.80;;;;;;;;;;5036979;28;20092;-55
2022/11/25 22:01:00;;;;;;;6.78;2.65;;;;;;;;;;5040367;28;20052;-52
2022/11/25 22:06:42;;;;;;;7.68;2.40;;;;;;;;;;5069033;28;20039;-54
2022/11/25 22:10:01;;;;;;;4.63;2.10;;;;;;;;;;5052096;28;20033;-50
2022/11/25 22:13:18;;;;;;;3.50;1.95;;;;;;;;;;4970084;29;20521;-50
2022/11/25 22:16:12;;;;;;;4.10;2.15;;;;;;;;;;4953708;29;20043;-53
2022/11/25 22:18:41;;;;;;;3.47;1.98;;;;;;;;;;4970171;29;20035;-52
2022/11/25 22:24:30;;;;;;;6.57;2.67;;;;;;;;;;4969589;28;20042;-50
2022/11/25 22:32:51;;;;;;;;;;;;;;;;;;;;;
2022/11/25 22:35:37;;;;;;;;;;;;;;;;;;;;;
2022/11/25 22:41:22;;;;;;;5.43;1.88;;;;;;;;;;5069058;28;20041;-54
2022/11/25 22:43:57;;;;;;;5.07;2.38;;;;;;;;;;5068949;28;20032;-55
2022/11/25 22:46:38;;;;;;;7.97;2.40;;;;;;;;;;5069343;28;20029;-55
2022/11/25 22:49:30;;;;;;;3.58;2.20;;;;;;;;;;5069538;28;20033;-54
2022/11/25 22:52:00;;;;;;;3.47;1.73;;;;;;;;;;5069460;28;20036;-54
2022/11/25 22:54:49;;;;;;;3.95;2.17;;;;;;;;;;5046230;28;20403;-53
2022/11/25 22:57:59;;;;;;;2.00;1.38;;;;;;;;;;5069379;28;20024;-56
2022/11/25 23:01:11;;;;;;;8.25;3.00;;;;;;;;;;5030275;28;20045;-56
2022/11/25 23:03:53;;;;;;;;;;;;;;;;;;;;;
2022/11/25 23:06:57;;;;;;;5.50;2.80;;;;;;;;;;5068831;28;20048;-54
2022/11/25 23:12:54;;;;;;;7.85;3.60;;;;;;;;;;5069147;28;20041;-54
2022/11/25 23:18:15;;;;;;;4.72;3.00;;;;;;;;;;5068872;28;20055;-52
2022/11/25 23:21:03;;;;;;;6.07;3.63;;;;;;;;;;5068669;28;20037;-54
2022/11/25 23:26:56;;;;;;;6.47;4.18;;;;;;;;;;5067068;28;20054;-53
2022/11/25 23:29:29;;;;;;;6.93;2.70;;;;;;;;;;5072510;28;20170;-55
2022/11/25 23:32:16;;;;;;;;;;;;;;;;;;;;;
2022/11/25 23:38:13;;;;;;;;;;;;;;;;;;5088599;28;20035;-53
2022/11/25 23:40:57;;;;;;;3.60;2.75;;;;;;;;;;5088606;28;19904;-54
2022/11/25 23:43:36;;;;;;;3.80;2.55;;;;;;;;;;5088483;28;20025;-54
2022/11/25 23:46:12;;;;;;;9.00;3.05;;;;;;;;;;5087919;28;20062;-55
2022/11/25 23:48:55;;;;;;;4.57;3.53;;;;;;;;;;5027106;28;20037;-54
2022/11/25 23:51:56;;;;;;;4.93;2.22;;;;;;;;;;5026835;28;20030;-52